Time;durP1;ratioP1;P1;durP2;ratioP2;P2;SDS_P1;SDS_P2;PMS_P1;PMS_P2;Temp;Humidity;BMP_temperature;BMP_pressure;BME280_temperature;BME280_humidity;BME280_pressure;Samples;Min_cycle;Max_cycle;Signal;HPM_P1;HPM_P2
2022/08/23 00:01:34;;;;;;;14.58;4.47;;;;;;;21.16;56.87;100115.55;1654624;84;21786;-68
2022/08/23 00:04:05;;;;;;;10.30;2.65;;;;;;;21.17;56.71;100119.91;1628619;87;21555;-67
2022/08/23 00:06:32;;;;;;;16.05;2.85;;;;;;;21.17;55.76;100119.06;1622158;87;21096;-67
2022/08/23 00:08:59;;;;;;;11.90;3.17;;;;;;;21.18;56.04;100117.45;1659173;84;21164;-67
2022/08/23 00:11:31;;;;;;;;;;;;;;;21.21;55.78;100118.84;1650382;85;21015;-68
2022/08/23 00:14:06;;;;;;;7.37;1.95;;;;;;;21.22;55.75;100123.16;1623410;88;20208;-68
2022/08/23 00:16:34;;;;;;;10.43;2.80;;;;;;;21.16;55.35;100120.97;1612599;88;21526;-68
2022/08/23 00:19:03;;;;;;;12.90;2.80;;;;;;;21.17;55.40;100123.97;1607580;85;21598;-70
2022/08/23 00:21:30;;;;;;;17.02;3.15;;;;;;;21.18;55.40;100126.94;1601256;88;21030;-69
2022/08/23 00:23:57;;;;;;;14.40;2.75;;;;;;;21.18;55.32;100121.52;1575067;88;20995;-69
2022/08/23 00:26:23;;;;;;;12.28;2.37;;;;;;;21.18;55.40;100126.94;1624595;87;21139;-70
2022/08/23 00:28:51;;;;;;;9.95;2.83;;;;;;;21.19;55.32;100125.03;1597339;87;21506;-68
2022/08/23 00:31:18;;;;;;;14.03;2.75;;;;;;;21.19;55.17;100131.30;1689122;83;21600;-67
2022/08/23 00:33:45;;;;;;;10.53;2.95;;;;;;;21.19;55.05;100133.16;1721036;81;20990;-69
2022/08/23 00:36:11;;;;;;;;;;;;;;;21.18;55.06;100136.42;1718320;82;21097;-69
2022/08/23 00:38:37;;;;;;;11.30;2.80;;;;;;;21.16;56.77;100137.78;1729851;82;20148;-69
2022/08/23 00:41:04;;;;;;;8.50;2.95;;;;;;;21.06;57.08;100135.00;1696921;82;21028;-69
2022/08/23 00:49:22;;;;;;;12.27;2.47;;;;;;;20.97;55.61;100134.70;1705417;82;21037;-68
2022/08/23 00:51:57;;;;;;;8.13;2.10;;;;;;;20.65;55.45;100100.38;1711690;82;21021;-68
2022/08/23 00:54:27;;;;;;;12.23;2.67;;;;;;;20.92;55.48;100144.95;1715559;82;21497;-67
2022/08/23 00:57:00;;;;;;;12.05;3.62;;;;;;;20.92;55.53;100145.50;1709352;81;21056;-69
2022/08/23 00:59:27;;;;;;;10.00;2.42;;;;;;;20.92;55.40;100146.30;1715996;83;21037;-67
2022/08/23 01:01:54;;;;;;;8.13;2.50;;;;;;;20.91;55.40;100139.27;1713477;82;21076;-69
2022/08/23 01:04:20;;;;;;;6.10;1.65;;;;;;;20.90;55.32;100144.40;1709106;81;21093;-68
2022/08/23 01:06:52;;;;;;;6.95;1.52;;;;;;;20.88;55.26;100149.27;1709119;82;21121;-71
2022/08/23 01:09:21;;;;;;;11.35;2.08;;;;;;;20.86;55.21;100147.91;1706548;82;21025;-68
2022/08/23 01:12:01;;;;;;;7.58;2.40;;;;;;;20.83;54.95;100148.42;1677833;81;21017;-70
2022/08/23 01:14:45;;;;;;;8.90;1.57;;;;;;;20.80;54.98;100148.41;1679991;84;21134;-69
2022/08/23 01:17:32;;;;;;;10.93;1.77;;;;;;;20.75;54.94;100143.76;1680396;84;21043;-68
2022/08/23 01:20:04;;;;;;;6.05;2.35;;;;;;;20.70;54.99;100142.39;1675408;84;21068;-67
2022/08/23 01:23:03;;;;;;;7.97;2.15;;;;;;;20.66;54.97;100152.09;1697358;81;20992;-68
2022/08/23 01:25:32;;;;;;;7.70;1.75;;;;;;;20.63;54.98;100143.15;1708261;82;21538;-68
2022/08/23 01:27:59;;;;;;;13.90;2.83;;;;;;;20.58;54.87;100147.94;1710751;81;21146;-67
2022/08/23 01:30:31;;;;;;;6.65;1.52;;;;;;;20.56;54.83;100143.87;1710756;82;21379;-68
2022/08/23 01:33:03;;;;;;;7.15;1.75;;;;;;;20.54;54.88;100144.67;1710661;82;21095;-68
2022/08/23 01:35:44;;;;;;;7.42;1.65;;;;;;;20.51;54.93;100144.66;1710709;82;21049;-69
2022/08/23 01:38:12;;;;;;;7.53;1.32;;;;;;;20.49;54.68;100150.04;1708680;82;21082;-68
2022/08/23 01:40:43;;;;;;;10.50;1.65;;;;;;;20.49;54.58;100150.04;1708973;82;21087;-68
2022/08/23 01:43:14;;;;;;;6.85;1.45;;;;;;;20.48;54.68;100146.52;1738412;81;21578;-69
2022/08/23 01:45:41;;;;;;;8.48;2.20;;;;;;;20.47;54.46;100153.00;1745281;81;21056;-70
2022/08/23 01:48:09;;;;;;;9.98;2.12;;;;;;;20.48;54.54;100151.12;1746450;81;21531;-69
2022/08/23 01:50:35;;;;;;;9.20;1.47;;;;;;;20.16;54.47;100104.58;1744214;81;21077;-70
2022/08/23 01:53:02;;;;;;;5.25;1.42;;;;;;;20.48;54.47;100164.66;1741194;82;20971;-69
2022/08/23 01:55:30;;;;;;;4.83;1.55;;;;;;;20.49;54.38;100160.87;1721436;82;21031;-67
2022/08/23 01:58:00;;;;;;;5.20;1.30;;;;;;;20.48;54.47;100157.89;1739407;82;21062;-68
2022/08/23 02:00:31;;;;;;;4.70;1.10;;;;;;;20.49;54.45;100158.16;1739782;82;21091;-68
2022/08/23 02:02:59;;;;;;;10.25;1.67;;;;;;;20.51;54.39;100158.72;1733086;81;21183;-69
2022/08/23 02:05:27;;;;;;;11.38;2.02;;;;;;;20.51;54.90;100156.00;1751865;81;20991;-69
2022/08/23 02:07:54;;;;;;;7.67;1.52;;;;;;;20.50;54.56;100163.32;1752483;81;21073;-68
2022/08/23 02:10:21;;;;;;;7.53;2.15;;;;;;;20.49;54.24;100163.03;1719458;81;21033;-68
2022/08/23 02:12:49;;;;;;;6.50;1.75;;;;;;;20.50;54.16;100169.28;1740319;81;21040;-68
2022/08/23 02:15:17;;;;;;;7.60;2.50;;;;;;;20.48;53.96;100163.31;1741126;81;21127;-68
2022/08/23 02:17:45;;;;;;;7.37;2.15;;;;;;;20.47;53.92;100165.18;1746374;81;20956;-69
2022/08/23 02:20:13;;;;;;;12.20;2.17;;;;;;;20.44;53.84;100163.01;1773677;79;21546;-69
2022/08/23 02:22:39;;;;;;;7.47;1.95;;;;;;;20.42;53.66;100163.27;1724187;81;21005;-69
2022/08/23 02:25:07;;;;;;;;;;;;;;;20.40;53.69;100165.95;1748532;81;21014;-70
2022/08/23 02:27:34;;;;;;;6.55;1.65;;;;;;;20.38;53.73;100177.55;1729176;82;20141;-68
2022/08/23 02:30:00;;;;;;;9.15;1.37;;;;;;;20.32;53.90;100180.75;1722412;82;21066;-69
2022/08/23 02:32:28;;;;;;;6.35;2.33;;;;;;;20.32;53.68;100182.10;1721701;82;21046;-68
2022/08/23 02:34:54;;;;;;;6.08;1.57;;;;;;;20.32;53.75;100176.69;1700814;83;21094;-68
2022/08/23 02:37:21;;;;;;;9.20;1.85;;;;;;;20.33;53.68;100176.17;1689796;83;21564;-69
2022/08/23 02:39:47;;;;;;;;;;;;;;;20.31;53.54;100172.36;1717149;82;21062;-71
2022/08/23 02:42:13;;;;;;;9.08;1.77;;;;;;;20.33;53.58;100176.17;1719544;82;20180;-68
2022/08/23 02:44:41;;;;;;;9.03;2.22;;;;;;;20.28;53.62;100183.69;1716466;82;21094;-68
2022/08/23 02:47:10;;;;;;;5.75;2.15;;;;;;;20.26;53.57;100181.78;1688087;83;21064;-69
2022/08/23 02:49:36;;;;;;;6.97;2.52;;;;;;;20.26;53.41;100181.78;1683747;83;21214;-69
2022/08/23 02:52:05;;;;;;;;;;;;;;;20.27;53.42;100178.53;1689874;83;21588;-70
2022/08/23 02:54:33;;;;;;;15.48;2.58;;;;;;;20.27;53.35;100179.37;1660373;85;20191;-68
2022/08/23 02:56:59;;;;;;;14.83;2.20;;;;;;;20.23;53.46;100189.08;1710844;82;21093;-69
2022/08/23 02:59:26;;;;;;;;;;;;;;;20.23;53.33;100195.84;1729717;82;20970;-69
2022/08/23 03:01:52;;;;;;;9.45;2.47;;;;;;;20.25;53.24;100193.70;1708956;82;20106;-69
2022/08/23 03:04:21;;;;;;;8.60;1.98;;;;;;;20.21;53.25;100193.39;1685638;83;21062;-68
2022/08/23 03:06:47;;;;;;;12.03;1.87;;;;;;;20.22;53.24;100190.95;1664136;83;21983;-69
2022/08/23 03:09:13;;;;;;;8.63;1.70;;;;;;;20.24;53.15;100196.11;1653294;85;21068;-68
2022/08/23 03:11:45;;;;;;;;;;;;;;;20.24;53.13;100194.75;1637397;86;21145;-69
2022/08/23 03:14:13;;;;;;;7.28;1.25;;;;;;;20.25;53.12;100195.05;1640806;86;20417;-69
2022/08/23 03:16:41;;;;;;;9.18;2.27;;;;;;;20.19;53.22;100198.75;1658909;86;21096;-68
2022/08/23 03:19:08;;;;;;;5.40;1.52;;;;;;;20.20;53.13;100203.11;1695558;82;21605;-70
2022/08/23 03:21:35;;;;;;;9.60;1.75;;;;;;;20.21;53.18;100204.73;1707857;82;20975;-69
2022/08/23 03:24:03;;;;;;;13.78;2.72;;;;;;;20.21;53.14;100206.92;1664381;84;21183;-69
2022/08/23 03:26:30;;;;;;;12.53;2.10;;;;;;;20.22;53.05;100216.66;1640713;85;21022;-69
2022/08/23 03:28:56;;;;;;;4.80;1.95;;;;;;;20.25;52.94;100218.56;1674270;85;21428;-68
2022/08/23 03:31:24;;;;;;;11.38;1.80;;;;;;;20.26;52.88;100208.84;1647256;85;21032;-68
2022/08/23 03:34:03;;;;;;;8.60;2.72;;;;;;;20.28;52.89;100203.99;1660833;84;21088;-67
2022/08/23 03:36:30;;;;;;;6.92;2.58;;;;;;;20.30;52.78;100216.73;1699032;81;21117;-68
2022/08/23 03:38:58;;;;;;;17.00;2.77;;;;;;;20.32;52.71;100217.29;1708896;82;21469;-68
2022/08/23 03:41:25;;;;;;;12.10;2.72;;;;;;;20.35;52.66;100220.03;1709816;82;21015;-68
2022/08/23 03:43:52;;;;;;;13.18;3.72;;;;;;;20.39;52.61;100221.16;1711017;82;21053;-69
2022/08/23 03:46:22;;;;;;;8.17;2.80;;;;;;;20.45;52.47;100224.73;1699264;81;20985;-69
2022/08/23 03:48:57;;;;;;;13.88;1.92;;;;;;;20.48;52.41;100222.88;1701505;83;21009;-73
2022/08/23 03:51:24;;;;;;;10.80;2.33;;;;;;;20.48;52.36;100222.33;1659485;83;21114;-68
2022/08/23 03:53:50;;;;;;;18.17;3.62;;;;;;;20.52;52.03;100230.20;1699590;83;21037;-71
2022/08/23 03:56:27;;;;;;;14.63;2.58;;;;;;;20.27;51.91;100189.36;1675680;83;21001;-68
2022/08/23 03:58:54;;;;;;;;;;;;;;;20.64;51.54;100240.09;1692406;84;21491;-68
2022/08/23 04:01:21;;;;;;;8.90;2.52;;;;;;;20.72;51.26;100239.09;1683115;84;20251;-68
2022/08/23 04:03:47;;;;;;;8.55;2.62;;;;;;;20.79;51.21;100234.28;1679074;82;21042;-69
2022/08/23 04:06:15;;;;;;;12.25;2.65;;;;;;;20.90;51.20;100245.19;1689719;83;21790;-69
2022/08/23 04:08:44;;;;;;;10.45;2.58;;;;;;;20.98;50.95;100250.11;1685017;83;21097;-69
2022/08/23 04:11:13;;;;;;;9.13;2.05;;;;;;;21.05;50.62;100249.36;1683620;83;21158;-68
2022/08/23 04:13:42;;;;;;;10.70;2.65;;;;;;;21.14;50.48;100251.86;1690594;83;21084;-69
2022/08/23 04:16:09;;;;;;;6.47;1.67;;;;;;;21.26;50.20;100252.20;1675420;83;21636;-68
2022/08/23 04:18:37;;;;;;;9.05;2.25;;;;;;;21.37;49.64;100250.64;1700658;83;21057;-69
2022/08/23 04:21:09;;;;;;;18.35;2.80;;;;;;;21.48;49.19;100246.13;1700014;83;21134;-69
2022/08/23 04:23:38;;;;;;;15.55;2.25;;;;;;;21.59;49.17;100253.79;1661167;84;21069;-69
2022/08/23 04:26:05;;;;;;;15.83;2.75;;;;;;;21.66;48.80;100264.38;1705285;83;21394;-69
2022/08/23 04:28:33;;;;;;;5.12;2.30;;;;;;;21.69;48.62;100255.73;1684830;84;21141;-68
2022/08/23 04:31:02;;;;;;;17.45;2.77;;;;;;;21.69;48.62;100259.25;1654902;84;21077;-68
2022/08/23 04:33:33;;;;;;;8.80;2.20;;;;;;;21.68;48.42;100254.92;1682082;84;20999;-69
2022/08/23 04:36:01;;;;;;;16.37;2.90;;;;;;;21.69;48.49;100259.25;1712677;83;20998;-68
2022/08/23 04:38:28;;;;;;;9.18;2.37;;;;;;;21.71;48.40;100264.42;1696731;82;21097;-68
2022/08/23 04:43:43;;;;;;;11.08;2.77;;;;;;;21.71;48.15;100258.99;1688608;84;21023;-69
2022/08/23 04:46:14;;;;;;;10.20;2.35;;;;;;;21.73;48.35;100263.06;1700920;84;21058;-69
2022/08/23 04:48:43;;;;;;;10.03;2.98;;;;;;;21.78;48.30;100265.81;1688465;84;21241;-69
2022/08/23 04:51:10;;;;;;;10.38;2.37;;;;;;;21.88;48.14;100268.29;1665687;85;21095;-68
2022/08/23 04:53:39;;;;;;;8.90;2.72;;;;;;;22.00;47.76;100266.18;1694713;84;21016;-67
2022/08/23 04:56:09;;;;;;;12.65;2.50;;;;;;;22.15;47.26;100267.58;1648698;82;21180;-68
2022/08/23 04:58:37;;;;;;;8.10;2.33;;;;;;;22.37;46.78;100276.62;1720325;82;20995;-69
2022/08/23 05:01:07;;;;;;;12.35;3.30;;;;;;;22.56;46.50;100265.50;1687095;83;20991;-70
2022/08/23 05:03:34;;;;;;;22.25;3.80;;;;;;;22.78;46.10;100269.34;1705940;83;22484;-71
2022/08/23 05:06:03;;;;;;;13.80;2.40;;;;;;;23.00;45.59;100264.99;1703322;83;21057;-70
2022/08/23 05:08:33;;;;;;;13.35;3.17;;;;;;;23.25;45.18;100268.80;1701675;82;21131;-68
2022/08/23 05:11:06;;;;;;;17.23;2.90;;;;;;;23.49;44.55;100274.47;1681492;83;21031;-69
2022/08/23 05:15:17;;;;;;;21.87;3.90;;;;;;;23.79;43.56;100262.70;1795032;79;22895;-69
2022/08/23 05:17:46;;;;;;;10.35;3.67;;;;;;;23.79;43.55;100265.42;1759192;80;21184;-69
2022/08/23 05:20:13;;;;;;;8.30;2.33;;;;;;;23.96;43.47;100275.96;1766145;78;21071;-68
2022/08/23 05:22:41;;;;;;;16.32;3.87;;;;;;;24.18;42.80;100277.47;1768346;78;20996;-69
2022/08/23 05:25:48;;;;;;;13.72;3.33;;;;;;;24.26;42.17;100268.70;1732033;82;21036;-69
2022/08/23 05:27:57;;;;;;;13.13;3.72;;;;;;;24.26;42.32;100287.24;1731989;81;21032;-68
2022/08/23 05:30:23;;;;;;;16.55;2.70;;;;;;;24.29;42.55;100281.22;1770163;79;21159;-69
2022/08/23 05:32:50;;;;;;;14.15;4.35;;;;;;;24.38;42.04;100289.62;1771844;80;21433;-69
2022/08/23 05:35:21;;;;;;;24.45;4.17;;;;;;;24.40;42.04;100284.70;1703508;80;21011;-68
2022/08/23 05:37:52;;;;;;;27.37;3.27;;;;;;;24.44;41.77;100287.68;1717952;82;21662;-69
2022/08/23 05:40:18;;;;;;;12.63;3.80;;;;;;;24.46;41.43;100282.20;1683696;80;21086;-68
2022/08/23 05:42:46;;;;;;;17.12;3.95;;;;;;;24.42;41.85;100289.31;1671364;84;21544;-72
2022/08/23 05:45:12;;;;;;;17.17;3.60;;;;;;;24.17;41.93;100268.50;1672879;85;21007;-74
2022/08/23 05:47:39;;;;;;;21.10;4.00;;;;;;;24.47;41.75;100295.30;1706786;82;21094;-68
2022/08/23 05:50:19;;;;;;;17.35;4.20;;;;;;;24.47;41.89;100293.38;1640947;82;21050;-69
2022/08/23 05:52:46;;;;;;;19.45;4.70;;;;;;;24.55;41.53;100303.45;1687245;83;21106;-69
2022/08/23 05:55:12;;;;;;;30.02;4.55;;;;;;;24.70;41.26;100297.08;1697289;82;21003;-69
2022/08/23 05:57:40;;;;;;;27.60;4.17;;;;;;;24.84;41.04;100305.67;1688472;83;21022;-70
2022/08/23 06:00:13;;;;;;;21.10;4.33;;;;;;;24.99;40.45;100292.47;1706387;81;21671;-73
2022/08/23 06:02:41;;;;;;;21.35;4.95;;;;;;;24.85;40.54;100311.95;1746601;81;21119;-68
2022/08/23 06:05:12;;;;;;;24.05;3.87;;;;;;;24.79;40.77;100311.19;1741644;81;21025;-69
2022/08/23 06:07:41;;;;;;;24.57;5.37;;;;;;;24.95;40.61;100302.32;1707213;80;21660;-69
2022/08/23 06:10:09;;;;;;;29.75;5.97;;;;;;;25.22;40.23;100317.36;1688641;83;21603;-69
2022/08/23 06:12:36;;;;;;;27.80;5.22;;;;;;;25.38;39.52;100311.25;1691403;81;21097;-71
2022/08/23 06:15:04;;;;;;;31.25;6.15;;;;;;;25.55;39.33;100311.61;1690601;84;21049;-70
2022/08/23 06:17:31;;;;;;;33.90;5.58;;;;;;;25.78;38.34;100308.63;1695665;84;21139;-68
2022/08/23 06:19:57;;;;;;;27.58;4.30;;;;;;;26.02;38.30;100310.57;1756871;79;21169;-68
2022/08/23 06:22:25;;;;;;;24.07;5.15;;;;;;;26.26;37.75;100317.36;1776091;79;20985;-69
2022/08/23 06:24:52;;;;;;;22.20;4.67;;;;;;;26.32;37.46;100323.02;1762283;80;21493;-68
2022/08/23 06:27:21;;;;;;;28.87;5.47;;;;;;;26.38;37.46;100337.41;1718756;80;21674;-69
2022/08/23 06:29:48;;;;;;;23.42;5.70;;;;;;;26.48;36.81;100325.52;1727101;81;21054;-69
2022/08/23 06:32:33;;;;;;;36.33;6.77;;;;;;;26.56;36.86;100322.12;1703025;81;21084;-68
2022/08/23 06:35:06;;;;;;;34.88;5.78;;;;;;;26.72;36.30;100324.11;1659309;83;21025;-75
2022/08/23 06:37:43;;;;;;;28.47;5.72;;;;;;;26.88;36.15;100347.39;1664101;84;21420;-68
2022/08/23 06:40:28;;;;;;;37.28;5.17;;;;;;;27.08;35.86;100324.91;1667033;84;21492;-69
2022/08/23 06:43:00;;;;;;;32.55;6.37;;;;;;;27.14;35.11;100338.75;1682121;83;21112;-70
2022/08/23 06:45:28;;;;;;;32.33;6.10;;;;;;;27.10;35.00;100339.09;1669888;81;21031;-69
2022/08/23 06:47:57;;;;;;;50.83;8.20;;;;;;;26.90;35.30;100349.27;1744491;80;21048;-69
2022/08/23 06:50:23;;;;;;;44.70;7.50;;;;;;;26.70;35.67;100354.48;1754290;79;21185;-72
2022/08/23 06:52:54;;;;;;;41.13;7.00;;;;;;;26.70;35.78;100348.20;1749365;80;21012;-70
2022/08/23 06:55:25;;;;;;;38.60;6.58;;;;;;;26.80;35.40;100350.23;1791299;78;20981;-68
2022/08/23 06:57:53;;;;;;;50.85;7.37;;;;;;;26.83;35.64;100354.30;1798532;78;21003;-72
2022/08/23 07:00:37;;;;;;;38.28;6.75;;;;;;;27.00;35.10;100361.96;1745977;78;21041;-71
2022/08/23 07:03:14;;;;;;;34.33;6.62;;;;;;;27.09;34.77;100361.55;1696503;82;21063;-70
2022/08/23 07:05:45;;;;;;;41.70;6.85;;;;;;;26.82;34.94;100308.09;1652266;84;21149;-71
2022/08/23 07:08:14;;;;;;;48.00;7.53;;;;;;;27.05;35.12;100364.62;1673039;84;21062;-71
2022/08/23 07:10:41;;;;;;;50.52;8.05;;;;;;;27.04;35.00;100349.88;1675540;84;21083;-76
2022/08/23 07:13:09;;;;;;;43.75;6.90;;;;;;;26.97;35.65;100355.70;1705950;80;21117;-69
2022/08/23 07:15:35;;;;;;;33.38;7.58;;;;;;;27.00;35.28;100365.50;1716333;82;21018;-70
2022/08/23 07:18:04;;;;;;;46.70;8.20;;;;;;;27.10;35.30;100363.15;1673723;84;21577;-71
2022/08/23 07:20:30;;;;;;;40.17;7.75;;;;;;;27.17;35.05;100366.32;1717402;80;21144;-72
2022/08/23 07:22:58;;;;;;;38.42;6.87;;;;;;;27.22;35.08;100355.86;1697027;82;21152;-69
2022/08/23 07:25:25;;;;;;;46.68;8.15;;;;;;;27.29;35.24;100360.40;1658096;85;21117;-69
2022/08/23 07:27:53;;;;;;;46.40;7.72;;;;;;;27.31;34.93;100369.69;1686674;83;21105;-72
2022/08/23 07:30:20;;;;;;;47.67;7.17;;;;;;;27.15;34.93;100374.02;1677279;85;20990;-69
2022/08/23 07:32:46;;;;;;;44.20;7.35;;;;;;;27.07;35.18;100376.08;1677150;85;21024;-73
2022/08/23 07:35:17;;;;;;;37.55;7.78;;;;;;;27.07;35.55;100364.30;1732697;81;22453;-69
2022/08/23 07:37:44;;;;;;;38.65;8.98;;;;;;;26.70;35.42;100345.47;1741539;81;21038;-70
2022/08/23 07:40:11;;;;;;;50.45;9.15;;;;;;;26.99;34.90;100376.73;1740334;81;21086;-68
2022/08/23 07:42:39;;;;;;;41.30;7.67;;;;;;;26.99;34.86;100385.77;1715687;81;21096;-70
2022/08/23 07:45:06;;;;;;;33.05;6.87;;;;;;;27.06;34.88;100384.58;1692955;82;21001;-73
2022/08/23 07:47:34;;;;;;;55.45;8.60;;;;;;;27.04;34.85;100371.75;1667962;84;21100;-69
2022/08/23 07:50:00;;;;;;;62.62;10.75;;;;;;;27.02;34.84;100376.71;1703801;82;21186;-70
2022/08/23 07:52:28;;;;;;;59.42;10.28;;;;;;;27.11;34.54;100369.45;1715569;82;21490;-68
2022/08/23 07:54:54;;;;;;;56.88;9.03;;;;;;;27.14;34.40;100390.19;1726930;82;21066;-68
2022/08/23 07:57:39;;;;;;;60.67;9.88;;;;;;;27.15;34.40;100384.97;1716289;82;21040;-70
2022/08/23 08:00:08;;;;;;;54.42;9.28;;;;;;;27.14;34.61;100377.05;1708728;82;21028;-72
2022/08/23 08:02:42;;;;;;;55.45;9.85;;;;;;;27.21;34.28;100391.16;1663551;86;21611;-70
2022/08/23 08:05:11;;;;;;;54.70;10.30;;;;;;;27.27;34.51;100372.20;1702843;82;21113;-69
2022/08/23 08:07:37;;;;;;;59.93;7.95;;;;;;;27.37;34.26;100380.83;1712337;82;21537;-70
2022/08/23 08:10:06;;;;;;;53.92;8.55;;;;;;;27.49;33.74;100383.08;1711018;82;21058;-71
2022/08/23 08:12:33;;;;;;;46.08;8.28;;;;;;;27.57;33.70;100390.02;1719048;82;21493;-70
2022/08/23 08:15:03;;;;;;;51.95;8.78;;;;;;;27.62;33.85;100378.18;1714974;82;21506;-70
2022/08/23 08:17:32;;;;;;;45.08;9.20;;;;;;;27.62;33.81;100370.53;1712365;82;21114;-71
2022/08/23 08:19:58;;;;;;;50.15;9.03;;;;;;;27.55;33.91;100379.93;1726470;83;21129;-70
2022/08/23 08:22:40;;;;;;;48.08;9.85;;;;;;;27.49;34.16;100384.44;1715168;83;21344;-69
2022/08/23 08:25:10;;;;;;;50.83;8.30;;;;;;;27.51;33.83;100399.44;1698927;82;21695;-70
2022/08/23 08:27:38;;;;;;;55.70;10.15;;;;;;;27.56;33.58;100391.71;1698499;82;21086;-70
2022/08/23 08:30:07;;;;;;;62.40;10.65;;;;;;;27.57;33.32;100391.95;1707605;82;21102;-72
2022/08/23 08:32:36;;;;;;;54.08;9.68;;;;;;;27.63;33.25;100398.95;1713715;81;21023;-69
2022/08/23 08:35:04;;;;;;;44.13;9.30;;;;;;;27.73;33.18;100385.09;1703596;81;21045;-77
2022/08/23 08:37:30;;;;;;;48.65;7.70;;;;;;;27.81;33.12;100380.03;1731495;81;21580;-74
2022/08/23 08:39:59;;;;;;;54.00;8.80;;;;;;;27.77;33.18;100370.24;1734371;82;21030;-71
2022/08/23 08:42:57;;;;;;;47.45;8.85;;;;;;;27.82;33.26;100407.66;1734473;82;21005;-71
2022/08/23 08:45:31;;;;;;;45.75;7.37;;;;;;;27.91;32.67;100415.46;1728820;82;21125;-70
2022/08/23 08:48:09;;;;;;;41.37;9.40;;;;;;;27.94;32.32;100405.28;1723617;82;21538;-69
2022/08/23 08:50:55;;;;;;;40.88;7.90;;;;;;;27.90;32.40;100432.47;1730217;82;21148;-70
2022/08/23 08:53:29;;;;;;;44.67;9.33;;;;;;;27.83;32.72;100407.92;1734330;82;21145;-73
2022/08/23 08:56:19;;;;;;;34.27;6.05;;;;;;;27.75;32.85;100395.19;1727675;81;21750;-71
2022/08/23 08:58:54;;;;;;;40.92;6.62;;;;;;;27.65;32.95;100398.12;1714319;81;21797;-69
2022/08/23 09:01:24;;;;;;;38.20;7.65;;;;;;;27.61;33.14;100425.83;1734948;79;21564;-72
2022/08/23 09:03:52;;;;;;;42.35;6.47;;;;;;;27.61;33.37;100434.60;1740329;81;20994;-69
2022/08/23 09:06:47;;;;;;;40.40;7.80;;;;;;;27.62;33.33;100417.08;1737147;81;21579;-72
2022/08/23 09:09:35;;;;;;;29.57;5.25;;;;;;;27.61;33.48;100427.75;1732515;81;21036;-71
2022/08/23 09:12:23;;;;;;;23.47;5.42;;;;;;;27.50;33.54;100399.73;1713333;81;21033;-69
2022/08/23 09:15:14;;;;;;;28.52;5.25;;;;;;;27.40;33.76;100406.20;1719673;83;21010;-74
2022/08/23 09:17:51;;;;;;;29.25;5.33;;;;;;;27.37;34.10;100398.05;1733754;81;21077;-70
2022/08/23 09:20:21;;;;;;;30.68;4.87;;;;;;;27.46;33.75;100411.03;1727478;81;21131;-70
2022/08/23 09:23:04;;;;;;;33.25;5.90;;;;;;;27.50;32.42;100394.27;1730365;81;21550;-68
2022/08/23 09:25:30;;;;;;;28.80;5.60;;;;;;;27.60;32.25;100397.41;1700644;83;20991;-70
2022/08/23 09:28:03;;;;;;;24.43;4.17;;;;;;;27.73;31.83;100416.58;1747651;80;21148;-71
2022/08/23 09:30:53;;;;;;;31.10;3.55;;;;;;;27.91;31.18;100403.14;1761679;80;21047;-69
2022/08/23 09:33:37;;;;;;;19.12;4.70;;;;;;;28.03;30.57;100411.68;1768131;79;21038;-69
2022/08/23 09:36:26;;;;;;;29.15;4.00;;;;;;;28.03;30.91;100402.09;1717334;80;21137;-68
2022/08/23 09:39:02;;;;;;;13.90;3.45;;;;;;;27.98;30.83;100392.59;1712251;82;21111;-69
2022/08/23 09:41:40;;;;;;;20.43;3.50;;;;;;;27.98;30.43;100406.86;1715270;80;21066;-70
2022/08/23 09:44:15;;;;;;;13.40;1.67;;;;;;;27.99;28.96;100408.47;1709912;82;21052;-72
2022/08/23 09:46:41;;;;;;;29.77;2.95;;;;;;;27.95;28.19;100404.15;1677816;84;21475;-68
2022/08/23 09:49:28;;;;;;;18.52;2.55;;;;;;;27.94;28.21;100408.02;1713543;82;21721;-72
2022/08/23 09:52:13;;;;;;;16.02;2.75;;;;;;;27.93;28.42;100394.05;1719048;82;21553;-70
2022/08/23 09:54:41;;;;;;;15.50;3.37;;;;;;;28.04;28.34;100407.81;1698100;82;21658;-71
2022/08/23 09:57:10;;;;;;;11.60;1.80;;;;;;;28.14;28.40;100425.97;1726522;82;21034;-71
2022/08/23 09:59:50;;;;;;;14.25;1.95;;;;;;;28.17;28.22;100399.91;1756800;80;21118;-72
2022/08/23 10:02:26;;;;;;;17.35;2.20;;;;;;;28.12;28.35;100403.55;1755154;80;21219;-70
2022/08/23 10:05:09;;;;;;;14.45;2.02;;;;;;;28.09;28.56;100389.91;1716876;80;21215;-73
2022/08/23 10:07:41;;;;;;;15.48;1.85;;;;;;;28.09;28.86;100397.33;1697790;84;21124;-71
2022/08/23 10:10:24;;;;;;;11.83;2.20;;;;;;;28.07;28.98;100392.71;1694832;84;21017;-70
2022/08/23 10:12:53;;;;;;;11.48;1.92;;;;;;;28.09;29.19;100385.80;1695912;81;21542;-71
2022/08/23 10:15:48;;;;;;;11.15;1.35;;;;;;;28.18;29.32;100379.06;1717455;81;20979;-69
2022/08/23 10:18:23;;;;;;;14.45;1.90;;;;;;;28.30;29.35;100368.94;1712509;81;21058;-69
2022/08/23 10:21:28;;;;;;;12.20;2.20;;;;;;;28.46;29.09;100378.46;1681360;82;21116;-71
2022/08/23 10:24:15;;;;;;;12.50;1.55;;;;;;;28.64;29.40;100370.42;1702293;81;21116;-70
2022/08/23 10:26:56;;;;;;;8.35;1.95;;;;;;;28.78;28.39;100378.59;1668205;84;21095;-70
2022/08/23 10:29:42;;;;;;;8.73;1.05;;;;;;;28.94;26.78;100375.75;1645175;83;21109;-72
2022/08/23 10:32:34;;;;;;;19.12;1.42;;;;;;;29.15;25.33;100350.59;1654221;84;21030;-72
2022/08/23 10:35:31;;;;;;;6.62;0.85;;;;;;;29.35;23.49;100393.16;1732655;80;21152;-69
2022/08/23 10:38:07;;;;;;;;;;;;;;;29.53;22.87;100412.75;1703171;83;21007;-71
2022/08/23 10:41:13;;;;;;;11.05;1.12;;;;;;;29.61;22.77;100397.44;1731829;81;20139;-72
2022/08/23 10:43:54;;;;;;;7.45;0.98;;;;;;;29.55;22.73;100405.00;1713398;81;21038;-74
2022/08/23 10:46:27;;;;;;;9.88;1.50;;;;;;;29.55;22.87;100387.15;1715087;83;21602;-72
2022/08/23 10:48:59;;;;;;;11.15;1.45;;;;;;;29.57;24.34;100386.27;1682994;83;21967;-72
2022/08/23 10:51:41;;;;;;;6.90;1.60;;;;;;;29.55;25.17;100384.41;1730287;83;21001;-71
2022/08/23 10:54:17;;;;;;;9.63;1.15;;;;;;;29.67;25.32;100401.12;1706196;82;21521;-71
2022/08/23 10:56:44;;;;;;;5.33;0.68;;;;;;;29.81;24.26;100397.50;1675023;83;20982;-71
2022/08/23 10:59:21;;;;;;;8.10;1.00;;;;;;;29.94;23.49;100364.18;1718453;79;21169;-71
2022/08/23 11:02:18;;;;;;;8.58;1.30;;;;;;;30.05;22.46;100392.42;1713382;81;21649;-70
2022/08/23 11:05:06;;;;;;;8.10;0.82;;;;;;;30.13;22.20;100395.52;1702710;80;21141;-70
2022/08/23 11:07:42;;;;;;;6.15;0.80;;;;;;;30.18;21.87;100410.50;1670502;82;21719;-71
2022/08/23 11:10:40;;;;;;;12.70;1.02;;;;;;;30.19;21.31;100383.23;1680853;84;21120;-71
2022/08/23 11:13:14;;;;;;;7.97;0.95;;;;;;;30.25;21.85;100383.33;1712166;81;21140;-74
2022/08/23 11:16:01;;;;;;;6.17;0.72;;;;;;;30.36;21.85;100397.63;1711187;83;21480;-72
2022/08/23 11:18:48;;;;;;;6.00;0.82;;;;;;;30.47;21.90;100381.06;1701989;81;21163;-70
2022/08/23 11:21:27;;;;;;;11.33;1.00;;;;;;;30.52;21.56;100399.37;1677491;83;21739;-69
2022/08/23 11:24:03;;;;;;;11.45;0.42;;;;;;;30.50;21.53;100392.81;1712639;82;20943;-71
2022/08/23 11:26:45;;;;;;;6.87;0.53;;;;;;;30.46;21.53;100391.27;1707096;82;21078;-70
2022/08/23 11:29:25;;;;;;;7.80;0.57;;;;;;;30.41;21.84;100376.28;1738957;81;21042;-70
2022/08/23 11:32:28;;;;;;;8.80;0.50;;;;;;;30.35;21.90;100365.20;1689092;81;21594;-71
2022/08/23 11:35:12;;;;;;;6.12;0.57;;;;;;;30.24;22.09;100392.72;1686652;81;21278;-70
2022/08/23 11:37:59;;;;;;;7.30;0.93;;;;;;;30.21;22.39;100375.48;1717845;81;21001;-70
2022/08/23 11:40:42;;;;;;;8.88;1.05;;;;;;;30.23;22.63;100380.09;1703317;80;21051;-69
2022/08/23 11:43:28;;;;;;;3.80;0.62;;;;;;;30.27;22.62;100376.41;1671393;84;21130;-71
2022/08/23 11:46:15;;;;;;;;;;;;;;;30.35;22.06;100380.33;1716047;82;21119;-69
2022/08/23 11:48:47;;;;;;;8.33;0.55;;;;;;;30.42;21.95;100388.91;1700551;83;20175;-72
2022/08/23 11:51:46;;;;;;;7.22;0.78;;;;;;;30.46;21.89;100395.96;1757628;80;21140;-69
2022/08/23 11:54:44;;;;;;;8.65;0.98;;;;;;;30.53;22.10;100366.02;1749268;80;21536;-70
2022/08/23 11:57:35;;;;;;;8.38;0.78;;;;;;;30.65;21.77;100375.03;1724991;80;21081;-70